Time,TemperatureF,DewpointF,PressureIn,WindDirection,WindDirectionDegrees,WindSpeedMPH,WindSpeedGustMPH,Humidity,HourlyPrecipIn,Conditions,Clouds,dailyrainin,SoftwareType,DateUTC
2013-08-15 00:02:00,65.1,64.8,29.92,SW,225,2.0,3.0,99,0.00,,,0.00,meteohub,2013-08-15 07:02:00,
2013-08-15 00:07:00,65.1,64.8,29.91,SW,225,2.0,3.0,99,0.00,,,0.00,meteohub,2013-08-15 07:07:00,
2013-08-15 00:12:00,65.1,64.8,29.92,SW,225,1.0,3.0,99,0.00,,,0.00,meteohub,2013-08-15 07:12:00,
2013-08-15 00:17:00,65.1,64.8,29.92,SW,225,1.0,3.0,99,0.00,,,0.00,meteohub,2013-08-15 07:17:00,
2013-08-15 00:22:00,65.1,64.8,29.92,SW,225,1.0,2.0,99,0.00,,,0.00,meteohub,2013-08-15 07:22:00,
2013-08-15 00:27:00,65.1,64.8,29.92,SW,225,0.0,2.0,99,0.00,,,0.00,meteohub,2013-08-15 07:27:00,
2013-08-15 00:32:00,65.1,64.8,29.91,SW,225,2.0,2.0,99,0.00,,,0.00,meteohub,2013-08-15 07:32:00,
2013-08-15 00:37:00,65.3,64.9,29.91,SW,225,3.0,3.0,99,0.00,,,0.00,meteohub,2013-08-15 07:37:00,
2013-08-15 00:42:00,65.1,64.8,29.91,NW,315,4.0,4.0,99,0.00,,,0.00,meteohub,2013-08-15 07:42:00,
2013-08-15 00:47:00,65.1,64.8,29.91,West,270,2.0,4.0,99,0.00,,,0.00,meteohub,2013-08-15 07:47:00,
2013-08-15 00:52:00,65.1,64.8,29.91,West,270,2.0,4.0,99,0.00,,,0.00,meteohub,2013-08-15 07:52:00,
2013-08-15 00:57:00,65.3,64.9,29.91,West,270,2.0,4.0,99,0.00,,,0.00,meteohub,2013-08-15 07:57:00,
2013-08-15 01:02:00,65.3,64.9,29.91,West,270,3.0,4.0,99,0.00,,,0.00,meteohub,2013-08-15 08:02:00,
2013-08-15 01:07:00,65.1,64.8,29.91,West,270,2.0,3.0,99,0.00,,,0.00,meteohub,2013-08-15 08:07:00,
2013-08-15 01:12:00,64.9,64.6,29.91,West,270,2.0,3.0,99,0.00,,,0.00,meteohub,2013-08-15 08:12:00,
2013-08-15 01:17:00,64.9,64.6,29.91,West,270,2.0,3.0,99,0.00,,,0.00,meteohub,2013-08-15 08:17:00,
2013-08-15 01:22:00,64.9,64.6,29.91,West,270,2.0,3.0,99,0.00,,,0.00,meteohub,2013-08-15 08:22:00,
2013-08-15 01:27:00,65.1,64.8,29.91,NW,315,5.0,5.0,99,0.00,,,0.00,meteohub,2013-08-15 08:27:00,
2013-08-15 01:32:00,64.9,64.6,29.91,NW,315,4.0,5.0,99,0.00,,,0.00,meteohub,2013-08-15 08:32:00,
2013-08-15 01:37:00,64.9,64.6,29.91,NW,315,1.0,5.0,99,0.00,,,0.00,meteohub,2013-08-15 08:37:00,
2013-08-15 01:42:00,64.9,64.6,29.91,NW,315,4.0,5.0,99,0.00,,,0.00,meteohub,2013-08-15 08:42:00,
2013-08-15 01:47:00,64.9,64.6,29.91,WNW,293,4.0,5.0,99,0.00,,,0.00,meteohub,2013-08-15 08:47:00,
2013-08-15 01:52:00,64.8,64.4,29.91,WNW,293,4.0,5.0,99,0.00,,,0.00,meteohub,2013-08-15 08:52:00,
2013-08-15 01:57:00,64.8,64.4,29.91,NW,315,2.0,5.0,99,0.00,,,0.00,meteohub,2013-08-15 08:57:00,
2013-08-15 02:02:00,64.8,64.4,29.91,North,0,3.0,4.0,99,0.00,,,0.00,meteohub,2013-08-15 09:02:00,
2013-08-15 02:07:00,64.8,64.4,29.91,North,0,2.0,4.0,99,0.00,,,0.00,meteohub,2013-08-15 09:07:00,
2013-08-15 02:12:00,64.8,64.4,29.91,NW,315,4.0,4.0,99,0.00,,,0.00,meteohub,2013-08-15 09:12:00,
2013-08-15 02:17:00,64.8,64.4,29.91,West,270,4.0,4.0,99,0.00,,,0.00,meteohub,2013-08-15 09:17:00,
2013-08-15 02:22:00,64.8,64.4,29.91,NW,315,5.0,5.0,99,0.00,,,0.00,meteohub,2013-08-15 09:22:00,
2013-08-15 02:27:00,64.8,64.4,29.91,NW,315,4.0,5.0,99,0.00,,,0.00,meteohub,2013-08-15 09:27:00,
2013-08-15 02:32:00,64.8,64.4,29.91,NW,315,5.0,5.0,99,0.00,,,0.00,meteohub,2013-08-15 09:32:00,
2013-08-15 02:37:00,64.6,64.2,29.91,NW,315,5.0,5.0,99,0.00,,,0.00,meteohub,2013-08-15 09:37:00,
2013-08-15 02:42:00,64.6,64.2,29.90,WNW,293,4.0,5.0,99,0.00,,,0.00,meteohub,2013-08-15 09:42:00,
2013-08-15 02:47:00,64.4,64.0,29.91,NW,315,3.0,5.0,99,0.00,,,0.00,meteohub,2013-08-15 09:47:00,
2013-08-15 02:52:00,64.4,64.0,29.91,NW,315,2.0,5.0,99,0.00,,,0.00,meteohub,2013-08-15 09:52:00,
2013-08-15 02:57:00,64.4,64.0,29.91,West,270,2.0,4.0,99,0.00,,,0.00,meteohub,2013-08-15 09:57:00,
2013-08-15 03:02:00,64.4,64.0,29.91,West,270,2.0,3.0,99,0.00,,,0.00,meteohub,2013-08-15 10:02:00,
2013-08-15 03:07:00,64.4,64.0,29.91,West,270,2.0,4.0,99,0.00,,,0.00,meteohub,2013-08-15 10:07:00,
2013-08-15 03:12:00,64.4,64.0,29.91,West,270,3.0,4.0,99,0.00,,,0.00,meteohub,2013-08-15 10:12:00,
2013-08-15 03:17:00,64.4,64.0,29.91,West,270,2.0,4.0,99,0.00,,,0.00,meteohub,2013-08-15 10:17:00,
2013-08-15 03:22:00,64.4,64.0,29.90,West,270,2.0,4.0,99,0.00,,,0.00,meteohub,2013-08-15 10:22:00,
2013-08-15 03:27:00,64.4,64.0,29.91,West,270,2.0,4.0,99,0.00,,,0.00,meteohub,2013-08-15 10:27:00,
2013-08-15 03:32:00,64.4,64.0,29.91,West,270,2.0,3.0,99,0.00,,,0.00,meteohub,2013-08-15 10:32:00,
2013-08-15 03:37:00,64.4,64.0,29.91,West,270,2.0,4.0,99,0.00,,,0.00,meteohub,2013-08-15 10:37:00,
2013-08-15 03:42:00,64.4,64.0,29.90,North,0,4.0,4.0,99,0.00,,,0.00,meteohub,2013-08-15 10:42:00,
2013-08-15 03:47:00,64.4,64.0,29.91,North,0,2.0,4.0,99,0.00,,,0.00,meteohub,2013-08-15 10:47:00,
2013-08-15 03:52:00,64.4,64.0,29.91,North,0,2.0,4.0,99,0.00,,,0.00,meteohub,2013-08-15 10:52:00,
2013-08-15 03:57:00,64.4,64.0,29.91,North,0,2.0,4.0,99,0.00,,,0.00,meteohub,2013-08-15 10:57:00,
2013-08-15 04:02:00,64.4,64.0,29.91,WNW,293,3.0,3.0,99,0.00,,,0.00,meteohub,2013-08-15 11:02:00,
2013-08-15 04:07:00,64.2,63.9,29.90,WNW,293,2.0,3.0,99,0.00,,,0.00,meteohub,2013-08-15 11:07:00,
2013-08-15 04:12:00,64.2,63.9,29.91,WNW,293,3.0,3.0,99,0.00,,,0.00,meteohub,2013-08-15 11:12:00,
2013-08-15 04:17:00,64.2,63.9,29.90,WNW,293,2.0,3.0,99,0.00,,,0.00,meteohub,2013-08-15 11:17:00,
2013-08-15 04:22:00,64.2,63.9,29.91,WNW,293,1.0,3.0,99,0.00,,,0.00,meteohub,2013-08-15 11:22:00,
2013-08-15 04:27:00,64.2,63.9,29.90,SSW,203,2.0,3.0,99,0.00,,,0.00,meteohub,2013-08-15 11:27:00,
2013-08-15 04:32:00,64.2,63.9,29.90,SSW,203,2.0,2.0,99,0.00,,,0.00,meteohub,2013-08-15 11:32:00,
2013-08-15 04:37:00,64.0,63.7,29.91,SSW,203,0.0,3.0,99,0.00,,,0.00,meteohub,2013-08-15 11:37:00,
2013-08-15 04:42:00,64.0,63.7,29.91,SSW,203,2.0,3.0,99,0.00,,,0.00,meteohub,2013-08-15 11:42:00,
2013-08-15 04:47:00,64.0,63.7,29.90,SSW,203,0.0,3.0,99,0.00,,,0.00,meteohub,2013-08-15 11:47:00,
2013-08-15 04:52:00,64.0,63.7,29.90,SSW,203,0.0,3.0,99,0.00,,,0.00,meteohub,2013-08-15 11:52:00,
2013-08-15 04:57:00,64.0,63.7,29.90,SSW,203,2.0,3.0,99,0.00,,,0.00,meteohub,2013-08-15 11:57:00,
2013-08-15 05:02:00,64.0,63.7,29.90,SSW,203,1.0,2.0,99,0.00,,,0.00,meteohub,2013-08-15 12:02:00,
2013-08-15 05:08:00,64.0,63.7,29.90,SSW,203,0.0,2.0,99,0.00,,,0.00,meteohub,2013-08-15 12:08:00,
2013-08-15 05:13:00,64.0,63.7,29.90,SSW,203,1.0,2.0,99,0.00,,,0.00,meteohub,2013-08-15 12:13:00,
2013-08-15 05:18:00,64.0,63.7,29.90,SSW,203,2.0,2.0,99,0.00,,,0.00,meteohub,2013-08-15 12:18:00,
2013-08-15 05:23:00,64.0,63.7,29.90,West,270,3.0,3.0,99,0.00,,,0.00,meteohub,2013-08-15 12:23:00,
2013-08-15 05:28:00,64.2,63.9,29.91,West,270,2.0,3.0,99,0.00,,,0.00,meteohub,2013-08-15 12:28:00,
2013-08-15 05:33:00,64.2,63.9,29.91,SW,225,2.0,3.0,99,0.00,,,0.00,meteohub,2013-08-15 12:33:00,
2013-08-15 05:38:00,64.2,63.9,29.90,SW,225,2.0,3.0,99,0.00,,,0.00,meteohub,2013-08-15 12:38:00,
2013-08-15 05:43:00,64.2,63.9,29.91,West,270,3.0,4.0,99,0.00,,,0.00,meteohub,2013-08-15 12:43:00,
2013-08-15 05:48:00,64.2,63.9,29.91,NW,315,4.0,4.0,99,0.00,,,0.00,meteohub,2013-08-15 12:48:00,
2013-08-15 05:53:00,64.4,64.0,29.91,NW,315,1.0,4.0,99,0.00,,,0.00,meteohub,2013-08-15 12:53:00,
2013-08-15 05:58:00,64.4,64.0,29.91,NW,315,3.0,4.0,99,0.00,,,0.00,meteohub,2013-08-15 12:58:00,
2013-08-15 06:03:00,64.2,63.9,29.91,NW,315,0.0,4.0,99,0.00,,,0.00,meteohub,2013-08-15 13:03:00,
2013-08-15 06:08:00,64.2,63.9,29.91,NW,315,4.0,4.0,99,0.00,,,0.00,meteohub,2013-08-15 13:08:00,
2013-08-15 06:13:00,64.2,63.9,29.91,WNW,293,2.0,4.0,99,0.00,,,0.00,meteohub,2013-08-15 13:13:00,
2013-08-15 06:18:00,64.2,63.9,29.92,West,270,3.0,4.0,99,0.00,,,0.00,meteohub,2013-08-15 13:18:00,
2013-08-15 06:23:00,64.2,63.9,29.92,WNW,293,0.0,4.0,99,0.00,,,0.00,meteohub,2013-08-15 13:23:00,
2013-08-15 06:28:00,64.4,64.0,29.93,WNW,293,2.0,4.0,99,0.00,,,0.00,meteohub,2013-08-15 13:28:00,
2013-08-15 06:33:00,64.4,64.0,29.93,WNW,293,1.0,4.0,99,0.00,,,0.00,meteohub,2013-08-15 13:33:00,
2013-08-15 06:38:00,64.4,64.0,29.93,West,270,3.0,3.0,99,0.00,,,0.00,meteohub,2013-08-15 13:38:00,
2013-08-15 06:43:00,64.4,64.0,29.93,West,270,2.0,3.0,99,0.00,,,0.00,meteohub,2013-08-15 13:43:00,
2013-08-15 06:48:00,64.6,64.2,29.93,NW,315,0.0,3.0,99,0.00,,,0.00,meteohub,2013-08-15 13:48:00,
2013-08-15 06:53:00,64.6,64.2,29.93,NW,315,2.0,4.0,99,0.00,,,0.00,meteohub,2013-08-15 13:53:00,
2013-08-15 06:58:00,64.8,64.4,29.93,NW,315,0.0,4.0,99,0.00,,,0.00,meteohub,2013-08-15 13:58:00,
2013-08-15 07:03:00,64.9,64.6,29.93,NW,315,0.0,4.0,99,0.00,,,0.00,meteohub,2013-08-15 14:03:00,
2013-08-15 07:08:00,65.1,64.8,29.93,SSW,203,3.0,3.0,99,0.00,,,0.00,meteohub,2013-08-15 14:08:00,
2013-08-15 07:13:00,65.1,64.8,29.93,West,270,0.0,3.0,99,0.00,,,0.00,meteohub,2013-08-15 14:13:00,
2013-08-15 07:18:00,65.3,64.9,29.93,West,270,0.0,3.0,99,0.00,,,0.00,meteohub,2013-08-15 14:18:00,
2013-08-15 07:23:00,65.5,65.1,29.93,West,270,3.0,3.0,99,0.00,,,0.00,meteohub,2013-08-15 14:23:00,
2013-08-15 07:28:00,65.5,65.1,29.93,West,270,2.0,2.0,99,0.00,,,0.00,meteohub,2013-08-15 14:28:00,
2013-08-15 07:33:00,65.7,65.3,29.94,West,270,2.0,4.0,99,0.00,,,0.00,meteohub,2013-08-15 14:33:00,
2013-08-15 07:38:00,66.0,65.7,29.94,SW,225,1.0,4.0,99,0.00,,,0.00,meteohub,2013-08-15 14:38:00,
2013-08-15 07:43:00,66.4,65.8,29.94,SW,225,1.0,4.0,98,0.00,,,0.00,meteohub,2013-08-15 14:43:00,
2013-08-15 07:49:00,67.1,66.6,29.94,SW,225,0.0,2.0,98,0.00,,,0.00,meteohub,2013-08-15 14:49:00,
2013-08-15 07:54:00,67.5,66.6,29.94,SW,225,0.0,2.0,97,0.00,,,0.00,meteohub,2013-08-15 14:54:00,
2013-08-15 08:00:00,68.0,66.6,29.94,SW,225,2.0,2.0,95,0.00,,,0.00,meteohub,2013-08-15 15:00:00,
2013-08-15 08:05:00,68.2,65.8,29.94,South,180,2.0,2.0,92,0.00,,,0.00,meteohub,2013-08-15 15:05:00,
2013-08-15 08:10:00,68.7,66.4,29.94,South,180,1.0,3.0,92,0.00,,,0.00,meteohub,2013-08-15 15:10:00,
2013-08-15 08:15:00,68.9,65.5,29.94,WNW,293,2.0,3.0,89,0.00,,,0.00,meteohub,2013-08-15 15:15:00,
2013-08-15 08:20:00,68.7,65.3,29.94,NW,315,2.0,4.0,89,0.00,,,0.00,meteohub,2013-08-15 15:20:00,
2013-08-15 08:25:00,69.1,65.7,29.95,NW,315,2.0,5.0,89,0.00,,,0.00,meteohub,2013-08-15 15:25:00,
2013-08-15 08:30:00,70.0,66.6,29.94,NW,315,2.0,5.0,89,0.00,,,0.00,meteohub,2013-08-15 15:30:00,
2013-08-15 08:35:00,71.2,66.6,29.94,NW,315,2.0,4.0,85,0.00,,,0.00,meteohub,2013-08-15 15:35:00,
2013-08-15 08:40:00,71.4,65.7,29.94,NW,315,2.0,3.0,82,0.00,,,0.00,meteohub,2013-08-15 15:40:00,
2013-08-15 08:45:00,71.4,66.0,29.95,NW,315,1.0,4.0,83,0.00,,,0.00,meteohub,2013-08-15 15:45:00,
2013-08-15 08:50:00,73.2,67.1,29.95,West,270,2.0,4.0,81,0.00,,,0.00,meteohub,2013-08-15 15:50:00,
2013-08-15 08:55:00,73.4,64.9,29.95,West,270,6.0,6.0,75,0.00,,,0.00,meteohub,2013-08-15 15:55:00,
2013-08-15 09:00:00,72.5,66.0,29.94,WNW,293,2.0,6.0,80,0.00,,,0.00,meteohub,2013-08-15 16:00:00,
2013-08-15 09:05:00,73.6,65.8,29.95,NW,315,4.0,6.0,77,0.00,,,0.00,meteohub,2013-08-15 16:05:00,
2013-08-15 09:10:00,74.1,65.7,29.95,West,270,4.0,7.0,75,0.00,,,0.00,meteohub,2013-08-15 16:10:00,
2013-08-15 09:16:00,73.9,65.8,29.95,West,270,5.0,7.0,76,0.00,,,0.00,meteohub,2013-08-15 16:16:00,
2013-08-15 09:21:00,73.9,65.8,29.95,West,270,7.0,8.0,76,0.00,,,0.00,meteohub,2013-08-15 16:21:00,
2013-08-15 09:26:00,73.9,65.8,29.95,NW,315,9.0,9.0,76,0.00,,,0.00,meteohub,2013-08-15 16:26:00,
2013-08-15 09:31:00,73.2,66.0,29.95,WNW,293,7.0,9.0,78,0.00,,,0.00,meteohub,2013-08-15 16:31:00,
2013-08-15 09:36:00,73.4,66.2,29.95,NW,315,8.0,9.0,78,0.00,,,0.00,meteohub,2013-08-15 16:36:00,
2013-08-15 09:41:00,73.2,66.4,29.95,NW,315,9.0,9.0,79,0.00,,,0.00,meteohub,2013-08-15 16:41:00,
2013-08-15 09:46:00,73.2,66.0,29.95,WNW,293,6.0,9.0,78,0.00,,,0.00,meteohub,2013-08-15 16:46:00,
2013-08-15 09:51:00,73.2,66.7,29.95,NW,315,6.0,9.0,80,0.00,,,0.00,meteohub,2013-08-15 16:51:00,
2013-08-15 09:56:00,73.9,66.2,29.95,NW,315,6.0,9.0,77,0.00,,,0.00,meteohub,2013-08-15 16:56:00,
2013-08-15 10:01:00,74.1,66.4,29.95,NW,315,4.0,8.0,77,0.00,,,0.00,meteohub,2013-08-15 17:01:00,
2013-08-15 10:07:00,73.6,66.4,29.95,NW,315,6.0,11.0,78,0.00,,,0.00,meteohub,2013-08-15 17:07:00,
2013-08-15 10:12:00,73.9,66.6,29.96,West,270,3.0,11.0,78,0.00,,,0.00,meteohub,2013-08-15 17:12:00,
2013-08-15 10:17:00,73.9,66.6,29.96,NW,315,8.0,11.0,78,0.00,,,0.00,meteohub,2013-08-15 17:17:00,
2013-08-15 10:22:00,73.6,66.7,29.96,SW,225,4.0,8.0,79,0.00,,,0.00,meteohub,2013-08-15 17:22:00,
2013-08-15 10:27:00,73.8,66.9,29.96,West,270,7.0,8.0,79,0.00,,,0.00,meteohub,2013-08-15 17:27:00,
2013-08-15 10:32:00,74.7,66.6,29.96,WNW,293,5.0,9.0,76,0.00,,,0.00,meteohub,2013-08-15 17:32:00,
2013-08-15 10:37:00,74.5,66.4,29.96,West,270,4.0,9.0,76,0.00,,,0.00,meteohub,2013-08-15 17:37:00,
2013-08-15 10:42:00,74.7,66.2,29.95,NW,315,7.0,7.0,75,0.00,,,0.00,meteohub,2013-08-15 17:42:00,
2013-08-15 10:52:00,75.9,66.2,29.95,WNW,293,9.0,9.0,72,0.00,,,0.00,meteohub,2013-08-15 17:52:00,
2013-08-15 10:57:00,75.6,66.4,29.95,NW,315,8.0,9.0,73,0.00,,,0.00,meteohub,2013-08-15 17:57:00,
2013-08-15 11:02:00,75.0,66.6,29.95,NW,315,7.0,9.0,75,0.00,,,0.00,meteohub,2013-08-15 18:02:00,
2013-08-15 11:07:00,75.6,66.4,29.95,NW,315,5.0,9.0,73,0.00,,,0.00,meteohub,2013-08-15 18:07:00,
2013-08-15 11:12:00,75.0,66.2,29.95,NW,315,8.0,8.0,74,0.00,,,0.00,meteohub,2013-08-15 18:12:00,
2013-08-15 11:17:00,75.0,67.3,29.94,NW,315,4.0,11.0,77,0.00,,,0.00,meteohub,2013-08-15 18:17:00,
2013-08-15 11:23:00,76.5,66.7,29.94,NW,315,5.0,11.0,72,0.00,,,0.00,meteohub,2013-08-15 18:23:00,
2013-08-15 11:28:00,75.7,67.3,29.94,NW,315,4.0,11.0,75,0.00,,,0.00,meteohub,2013-08-15 18:28:00,
2013-08-15 11:33:00,75.7,66.0,29.94,West,270,8.0,10.0,72,0.00,,,0.00,meteohub,2013-08-15 18:33:00,
2013-08-15 11:38:00,75.4,66.9,29.94,NW,315,7.0,9.0,75,0.00,,,0.00,meteohub,2013-08-15 18:38:00,
2013-08-15 11:43:00,75.4,66.6,29.94,NW,315,6.0,10.0,74,0.00,,,0.00,meteohub,2013-08-15 18:43:00,
2013-08-15 11:48:00,74.8,66.4,29.94,West,270,7.0,10.0,75,0.00,,,0.00,meteohub,2013-08-15 18:48:00,
2013-08-15 11:53:00,75.7,66.4,29.94,NW,315,5.0,9.0,73,0.00,,,0.00,meteohub,2013-08-15 18:53:00,
2013-08-15 11:58:00,74.7,66.9,29.94,NW,315,4.0,11.0,77,0.00,,,0.00,meteohub,2013-08-15 18:58:00,
2013-08-15 12:04:00,75.2,66.4,29.94,WNW,293,4.0,11.0,74,0.00,,,0.00,meteohub,2013-08-15 19:04:00,
2013-08-15 12:09:00,74.7,65.8,29.94,NW,315,7.0,11.0,74,0.00,,,0.00,meteohub,2013-08-15 19:09:00,
2013-08-15 12:14:00,74.7,66.2,29.94,West,270,7.0,11.0,75,0.00,,,0.00,meteohub,2013-08-15 19:14:00,
2013-08-15 12:19:00,74.7,65.8,29.94,NW,315,8.0,10.0,74,0.00,,,0.00,meteohub,2013-08-15 19:19:00,
2013-08-15 12:24:00,73.9,66.2,29.93,WNW,293,7.0,10.0,77,0.00,,,0.00,meteohub,2013-08-15 19:24:00,
2013-08-15 12:29:00,73.9,65.8,29.93,WSW,248,8.0,11.0,76,0.00,,,0.00,meteohub,2013-08-15 19:29:00,
2013-08-15 12:34:00,73.9,65.8,29.93,West,270,14.0,14.0,76,0.00,,,0.00,meteohub,2013-08-15 19:34:00,
2013-08-15 12:39:00,74.3,65.8,29.94,West,270,12.0,14.0,75,0.00,,,0.00,meteohub,2013-08-15 19:39:00,
2013-08-15 12:44:00,74.1,66.0,29.93,NW,315,10.0,14.0,76,0.00,,,0.00,meteohub,2013-08-15 19:44:00,
2013-08-15 12:49:00,74.1,66.4,29.94,West,270,7.0,14.0,77,0.00,,,0.00,meteohub,2013-08-15 19:49:00,
2013-08-15 12:54:00,74.8,66.0,29.94,NW,315,9.0,12.0,74,0.00,,,0.00,meteohub,2013-08-15 19:54:00,
2013-08-15 12:59:00,75.2,66.4,29.93,NW,315,7.0,12.0,74,0.00,,,0.00,meteohub,2013-08-15 19:59:00,
2013-08-15 13:05:00,75.0,66.2,29.93,West,270,7.0,11.0,74,0.00,,,0.00,meteohub,2013-08-15 20:05:00,
2013-08-15 13:10:00,75.6,66.4,29.93,NW,315,6.0,12.0,73,0.00,,,0.00,meteohub,2013-08-15 20:10:00,
2013-08-15 13:15:00,75.4,66.2,29.93,SW,225,11.0,12.0,73,0.00,,,0.00,meteohub,2013-08-15 20:15:00,
2013-08-15 13:20:00,74.8,66.4,29.93,West,270,9.0,12.0,75,0.00,,,0.00,meteohub,2013-08-15 20:20:00,
2013-08-15 13:25:00,74.3,66.9,29.93,West,270,8.0,11.0,78,0.00,,,0.00,meteohub,2013-08-15 20:25:00,
2013-08-15 13:31:00,74.7,66.2,29.92,NW,315,10.0,11.0,75,0.00,,,0.00,meteohub,2013-08-15 20:31:00,
2013-08-15 13:36:00,75.0,66.6,29.92,NW,315,11.0,11.0,75,0.00,,,0.00,meteohub,2013-08-15 20:36:00,
2013-08-15 13:41:00,75.0,66.2,29.92,West,270,8.0,11.0,74,0.00,,,0.00,meteohub,2013-08-15 20:41:00,
2013-08-15 13:46:00,74.5,65.7,29.92,NW,315,9.0,11.0,74,0.00,,,0.00,meteohub,2013-08-15 20:46:00,
2013-08-15 13:52:00,74.8,66.4,29.92,NW,315,10.0,11.0,75,0.00,,,0.00,meteohub,2013-08-15 20:52:00,
2013-08-15 13:56:00,75.0,65.3,29.92,West,270,10.0,13.0,72,0.00,,,0.00,meteohub,2013-08-15 20:56:00,
2013-08-15 14:02:00,74.7,65.8,29.92,West,270,9.0,13.0,74,0.00,,,0.00,meteohub,2013-08-15 21:02:00,
2013-08-15 14:07:00,74.8,66.0,29.92,NW,315,8.0,13.0,74,0.00,,,0.00,meteohub,2013-08-15 21:07:00,
2013-08-15 14:12:00,74.5,65.7,29.92,WNW,293,9.0,12.0,74,0.00,,,0.00,meteohub,2013-08-15 21:12:00,
2013-08-15 14:17:00,74.7,65.5,29.92,West,270,11.0,12.0,73,0.00,,,0.00,meteohub,2013-08-15 21:17:00,
2013-08-15 14:22:00,75.0,65.8,29.92,NW,315,8.0,15.0,73,0.00,,,0.00,meteohub,2013-08-15 21:22:00,
2013-08-15 14:28:00,75.2,65.5,29.92,ENE,68,8.0,15.0,72,0.00,,,0.00,meteohub,2013-08-15 21:28:00,
2013-08-15 14:33:00,75.7,65.7,29.92,West,270,11.0,15.0,71,0.00,,,0.00,meteohub,2013-08-15 21:33:00,
2013-08-15 14:38:00,74.7,65.1,29.92,West,270,11.0,12.0,72,0.00,,,0.00,meteohub,2013-08-15 21:38:00,
2013-08-15 14:44:00,74.5,65.7,29.92,West,270,6.0,12.0,74,0.00,,,0.00,meteohub,2013-08-15 21:44:00,
2013-08-15 14:49:00,74.1,65.3,29.92,West,270,9.0,13.0,74,0.00,,,0.00,meteohub,2013-08-15 21:49:00,
2013-08-15 14:54:00,74.5,65.3,29.92,South,180,11.0,13.0,73,0.00,,,0.00,meteohub,2013-08-15 21:54:00,
2013-08-15 14:59:00,75.0,65.3,29.91,West,270,11.0,14.0,72,0.00,,,0.00,meteohub,2013-08-15 21:59:00,
2013-08-15 15:04:00,74.1,65.3,29.91,West,270,9.0,14.0,74,0.00,,,0.00,meteohub,2013-08-15 22:04:00,
2013-08-15 15:09:00,74.3,65.5,29.91,West,270,10.0,14.0,74,0.00,,,0.00,meteohub,2013-08-15 22:09:00,
2013-08-15 15:14:00,74.5,65.7,29.91,West,270,11.0,13.0,74,0.00,,,0.00,meteohub,2013-08-15 22:14:00,
2013-08-15 15:19:00,73.9,65.5,29.91,NW,315,11.0,12.0,75,0.00,,,0.00,meteohub,2013-08-15 22:19:00,
2013-08-15 15:24:00,74.3,65.1,29.91,NW,315,11.0,12.0,73,0.00,,,0.00,meteohub,2013-08-15 22:24:00,
2013-08-15 15:29:00,74.7,65.5,29.91,NW,315,7.0,11.0,73,0.00,,,0.00,meteohub,2013-08-15 22:29:00,
2013-08-15 15:34:00,74.8,65.7,29.91,West,270,8.0,11.0,73,0.00,,,0.00,meteohub,2013-08-15 22:34:00,
2013-08-15 15:39:00,75.2,66.0,29.90,West,270,8.0,11.0,73,0.00,,,0.00,meteohub,2013-08-15 22:39:00,
2013-08-15 15:44:00,75.0,65.3,29.90,West,270,11.0,11.0,72,0.00,,,0.00,meteohub,2013-08-15 22:44:00,
2013-08-15 15:50:00,75.2,65.5,29.90,NW,315,11.0,13.0,72,0.00,,,0.00,meteohub,2013-08-15 22:50:00,
2013-08-15 15:55:00,74.7,65.5,29.90,WNW,293,12.0,13.0,73,0.00,,,0.00,meteohub,2013-08-15 22:55:00,
2013-08-15 16:00:00,74.8,65.7,29.90,West,270,11.0,13.0,73,0.00,,,0.00,meteohub,2013-08-15 23:00:00,
2013-08-15 16:05:00,74.7,66.2,29.90,NW,315,8.0,12.0,75,0.00,,,0.00,meteohub,2013-08-15 23:05:00,
2013-08-15 16:10:00,74.3,65.8,29.90,WNW,293,11.0,12.0,75,0.00,,,0.00,meteohub,2013-08-15 23:10:00,
2013-08-15 16:15:00,74.1,66.0,29.90,West,270,11.0,12.0,76,0.00,,,0.00,meteohub,2013-08-15 23:15:00,
2013-08-15 16:20:00,73.9,65.8,29.90,WNW,293,7.0,12.0,76,0.00,,,0.00,meteohub,2013-08-15 23:20:00,
2013-08-15 16:25:00,73.9,65.5,29.90,West,270,14.0,14.0,75,0.00,,,0.00,meteohub,2013-08-15 23:25:00,
2013-08-15 16:31:00,74.3,65.8,29.90,NW,315,10.0,14.0,75,0.00,,,0.00,meteohub,2013-08-15 23:31:00,
2013-08-15 16:36:00,73.9,65.5,29.90,West,270,13.0,14.0,75,0.00,,,0.00,meteohub,2013-08-15 23:36:00,
2013-08-15 16:41:00,73.8,65.7,29.90,West,270,9.0,14.0,76,0.00,,,0.00,meteohub,2013-08-15 23:41:00,
2013-08-15 16:46:00,73.9,65.5,29.90,NW,315,12.0,14.0,75,0.00,,,0.00,meteohub,2013-08-15 23:46:00,
2013-08-15 16:51:00,73.2,65.7,29.90,West,270,10.0,13.0,77,0.00,,,0.00,meteohub,2013-08-15 23:51:00,
2013-08-15 16:56:00,73.2,65.7,29.90,West,270,11.0,14.0,77,0.00,,,0.00,meteohub,2013-08-15 23:56:00,
2013-08-15 16:57:00,73.2,65.7,29.90,NW,315,12.0,14.0,77,0.00,,,0.00,meteohub,2013-08-15 23:57:00,
2013-08-15 17:02:00,72.5,66.0,29.90,West,270,10.0,15.0,80,0.00,,,0.00,meteohub,2013-08-16 00:02:00,
2013-08-15 17:07:00,72.7,65.8,29.90,West,270,11.0,15.0,79,0.00,,,0.00,meteohub,2013-08-16 00:07:00,
2013-08-15 17:12:00,72.1,65.7,29.90,West,270,11.0,15.0,80,0.00,,,0.00,meteohub,2013-08-16 00:12:00,
2013-08-15 17:17:00,72.3,65.8,29.90,West,270,11.0,13.0,80,0.00,,,0.00,meteohub,2013-08-16 00:17:00,
2013-08-15 17:22:00,72.5,65.7,29.90,West,270,11.0,13.0,79,0.00,,,0.00,meteohub,2013-08-16 00:22:00,
2013-08-15 17:27:00,72.3,65.5,29.90,WNW,293,12.0,13.0,79,0.00,,,0.00,meteohub,2013-08-16 00:27:00,
2013-08-15 17:32:00,72.1,65.7,29.89,West,270,10.0,12.0,80,0.00,,,0.00,meteohub,2013-08-16 00:32:00,
2013-08-15 17:38:00,72.0,65.5,29.89,NW,315,10.0,13.0,80,0.00,,,0.00,meteohub,2013-08-16 00:38:00,
2013-08-15 17:43:00,72.3,65.5,29.89,WNW,293,9.0,13.0,79,0.00,,,0.00,meteohub,2013-08-16 00:43:00,
2013-08-15 17:48:00,72.3,65.8,29.89,NW,315,4.0,13.0,80,0.00,,,0.00,meteohub,2013-08-16 00:48:00,
2013-08-15 17:53:00,72.0,65.5,29.89,NW,315,8.0,11.0,80,0.00,,,0.00,meteohub,2013-08-16 00:53:00,
2013-08-15 17:58:00,71.6,65.5,29.89,West,270,8.0,11.0,81,0.00,,,0.00,meteohub,2013-08-16 00:58:00,
2013-08-15 18:05:00,71.4,65.7,29.89,NW,315,10.0,11.0,82,0.00,,,0.00,meteohub,2013-08-16 01:05:00,
2013-08-15 18:10:00,71.1,65.7,29.89,West,270,9.0,11.0,83,0.00,,,0.00,meteohub,2013-08-16 01:10:00,
2013-08-15 18:15:00,70.9,65.5,29.89,West,270,11.0,11.0,83,0.00,,,0.00,meteohub,2013-08-16 01:15:00,
2013-08-15 18:20:00,70.7,65.7,29.89,NW,315,13.0,13.0,84,0.00,,,0.00,meteohub,2013-08-16 01:20:00,
2013-08-15 18:25:00,70.3,65.7,29.90,West,270,8.0,13.0,85,0.00,,,0.00,meteohub,2013-08-16 01:25:00,
2013-08-15 18:31:00,70.5,65.8,29.90,West,270,11.0,13.0,85,0.00,,,0.00,meteohub,2013-08-16 01:31:00,
2013-08-15 18:37:00,69.8,65.8,29.90,West,270,8.0,13.0,87,0.00,,,0.00,meteohub,2013-08-16 01:37:00,
2013-08-15 18:42:00,69.8,65.8,29.89,NW,315,8.0,13.0,87,0.00,,,0.00,meteohub,2013-08-16 01:42:00,
2013-08-15 18:47:00,69.8,65.8,29.90,West,270,11.0,13.0,87,0.00,,,0.00,meteohub,2013-08-16 01:47:00,
2013-08-15 18:52:00,69.4,65.7,29.90,West,270,13.0,14.0,88,0.00,,,0.00,meteohub,2013-08-16 01:52:00,
2013-08-15 18:57:00,69.3,65.8,29.90,West,270,12.0,14.0,89,0.00,,,0.00,meteohub,2013-08-16 01:57:00,
2013-08-15 19:02:00,69.1,65.7,29.90,West,270,9.0,14.0,89,0.00,,,0.00,meteohub,2013-08-16 02:02:00,
2013-08-15 19:07:00,68.9,65.5,29.90,NW,315,11.0,13.0,89,0.00,,,0.00,meteohub,2013-08-16 02:07:00,
2013-08-15 19:12:00,68.7,66.0,29.90,NW,315,9.0,12.0,91,0.00,,,0.00,meteohub,2013-08-16 02:12:00,
2013-08-15 19:17:00,68.2,65.8,29.90,WNW,293,9.0,12.0,92,0.00,,,0.00,meteohub,2013-08-16 02:17:00,
2013-08-15 19:22:00,68.0,65.8,29.91,WNW,293,10.0,12.0,93,0.00,,,0.00,meteohub,2013-08-16 02:22:00,
2013-08-15 19:27:00,67.8,66.0,29.90,WNW,293,9.0,12.0,94,0.00,,,0.00,meteohub,2013-08-16 02:27:00,
2013-08-15 19:32:00,67.6,65.8,29.91,West,270,10.0,11.0,94,0.00,,,0.00,meteohub,2013-08-16 02:32:00,
2013-08-15 19:38:00,67.5,65.7,29.91,West,270,10.0,10.0,94,0.00,,,0.00,meteohub,2013-08-16 02:38:00,
2013-08-15 19:43:00,67.5,66.0,29.91,West,270,9.0,10.0,95,0.00,,,0.00,meteohub,2013-08-16 02:43:00,
2013-08-15 19:48:00,67.1,65.8,29.91,West,270,6.0,10.0,96,0.00,,,0.00,meteohub,2013-08-16 02:48:00,
2013-08-15 19:53:00,67.1,65.8,29.91,West,270,8.0,11.0,96,0.00,,,0.00,meteohub,2013-08-16 02:53:00,
2013-08-15 19:58:00,66.9,66.0,29.92,West,270,8.0,11.0,97,0.00,,,0.00,meteohub,2013-08-16 02:58:00,
2013-08-15 20:03:00,66.9,66.0,29.92,West,270,8.0,11.0,97,0.00,,,0.00,meteohub,2013-08-16 03:03:00,
2013-08-15 20:08:00,66.9,66.0,29.92,West,270,8.0,11.0,97,0.00,,,0.00,meteohub,2013-08-16 03:08:00,
2013-08-15 20:13:00,66.9,66.0,29.92,West,270,4.0,11.0,97,0.00,,,0.00,meteohub,2013-08-16 03:13:00,
2013-08-15 20:18:00,66.9,66.4,29.93,West,270,6.0,11.0,98,0.00,,,0.00,meteohub,2013-08-16 03:18:00,
2013-08-15 20:23:00,66.7,66.2,29.93,WNW,293,6.0,10.0,98,0.00,,,0.00,meteohub,2013-08-16 03:23:00,
2013-08-15 20:28:00,66.9,66.4,29.93,NW,315,5.0,10.0,98,0.00,,,0.00,meteohub,2013-08-16 03:28:00,
2013-08-15 20:33:00,66.7,66.2,29.93,West,270,4.0,9.0,98,0.00,,,0.00,meteohub,2013-08-16 03:33:00,
2013-08-15 20:38:00,66.7,66.2,29.92,West,270,5.0,9.0,98,0.00,,,0.00,meteohub,2013-08-16 03:38:00,
2013-08-15 20:43:00,66.7,66.4,29.93,West,270,4.0,9.0,99,0.00,,,0.00,meteohub,2013-08-16 03:43:00,
2013-08-15 20:48:00,66.6,66.2,29.93,NW,315,4.0,8.0,99,0.00,,,0.00,meteohub,2013-08-16 03:48:00,
2013-08-15 20:53:00,66.6,66.2,29.93,West,270,7.0,8.0,99,0.00,,,0.00,meteohub,2013-08-16 03:53:00,
2013-08-15 20:58:00,66.6,66.2,29.93,West,270,5.0,8.0,99,0.00,,,0.00,meteohub,2013-08-16 03:58:00,
2013-08-15 21:01:00,66.4,66.0,29.93,West,270,3.0,8.0,99,0.00,,,0.00,meteohub,2013-08-16 04:01:00,
2013-08-15 21:06:00,66.4,66.0,29.93,West,270,5.0,9.0,99,0.00,,,0.00,meteohub,2013-08-16 04:06:00,
2013-08-15 21:11:00,66.4,66.0,29.94,West,270,5.0,9.0,99,0.00,,,0.00,meteohub,2013-08-16 04:11:00,
2013-08-15 21:16:00,66.4,66.0,29.94,NW,315,7.0,7.0,99,0.00,,,0.00,meteohub,2013-08-16 04:16:00,
2013-08-15 21:21:00,66.4,66.0,29.94,West,270,4.0,7.0,99,0.00,,,0.00,meteohub,2013-08-16 04:21:00,
2013-08-15 21:26:00,66.2,65.8,29.94,NW,315,4.0,7.0,99,0.00,,,0.00,meteohub,2013-08-16 04:26:00,
2013-08-15 21:31:00,66.2,65.8,29.94,NW,315,4.0,7.0,99,0.00,,,0.00,meteohub,2013-08-16 04:31:00,
2013-08-15 21:36:00,66.2,65.8,29.94,WNW,293,6.0,7.0,99,0.00,,,0.00,meteohub,2013-08-16 04:36:00,
2013-08-15 21:41:00,66.2,65.8,29.94,West,270,2.0,6.0,99,0.00,,,0.00,meteohub,2013-08-16 04:41:00,
2013-08-15 21:46:00,66.2,65.8,29.94,West,270,5.0,6.0,99,0.00,,,0.00,meteohub,2013-08-16 04:46:00,
2013-08-15 21:51:00,66.2,65.8,29.94,West,270,8.0,8.0,99,0.00,,,0.00,meteohub,2013-08-16 04:51:00,
2013-08-15 21:56:00,66.2,65.8,29.94,West,270,4.0,8.0,99,0.00,,,0.00,meteohub,2013-08-16 04:56:00,
2013-08-15 22:01:00,66.2,65.8,29.95,WSW,248,3.0,8.0,99,0.00,,,0.00,meteohub,2013-08-16 05:01:00,
2013-08-15 22:06:00,66.2,65.8,29.95,West,270,4.0,8.0,99,0.00,,,0.00,meteohub,2013-08-16 05:06:00,
2013-08-15 22:11:00,66.2,65.8,29.95,West,270,2.0,4.0,99,0.00,,,0.00,meteohub,2013-08-16 05:11:00,
2013-08-15 22:20:00,66.2,65.8,29.95,West,270,7.0,7.0,99,0.00,,,0.00,meteohub,2013-08-16 05:20:00,
2013-08-15 22:25:00,66.0,65.7,29.95,West,270,4.0,6.0,99,0.00,,,0.00,meteohub,2013-08-16 05:25:00,
2013-08-15 22:30:00,66.0,65.7,29.95,West,270,4.0,7.0,99,0.00,,,0.00,meteohub,2013-08-16 05:30:00,
2013-08-15 22:35:00,66.0,65.7,29.95,West,270,4.0,7.0,99,0.00,,,0.00,meteohub,2013-08-16 05:35:00,
2013-08-15 22:40:00,66.0,65.7,29.95,West,270,4.0,7.0,99,0.00,,,0.00,meteohub,2013-08-16 05:40:00,
2013-08-15 22:45:00,66.0,65.7,29.95,WNW,293,4.0,5.0,99,0.00,,,0.00,meteohub,2013-08-16 05:45:00,
2013-08-15 22:50:00,66.0,65.7,29.95,West,270,4.0,4.0,99,0.00,,,0.00,meteohub,2013-08-16 05:50:00,
2013-08-15 22:55:00,66.0,65.7,29.96,West,270,4.0,6.0,99,0.00,,,0.00,meteohub,2013-08-16 05:55:00,
2013-08-15 23:00:00,65.8,65.5,29.95,West,270,4.0,6.0,99,0.00,,,0.00,meteohub,2013-08-16 06:00:00,
2013-08-15 23:05:00,65.8,65.5,29.95,West,270,3.0,7.0,99,0.00,,,0.00,meteohub,2013-08-16 06:05:00,
2013-08-15 23:10:00,65.7,65.3,29.95,NW,315,5.0,7.0,99,0.00,,,0.00,meteohub,2013-08-16 06:10:00,
2013-08-15 23:15:00,65.7,65.3,29.95,West,270,5.0,7.0,99,0.00,,,0.00,meteohub,2013-08-16 06:15:00,
2013-08-15 23:20:00,65.5,65.1,29.95,WNW,293,5.0,7.0,99,0.00,,,0.00,meteohub,2013-08-16 06:20:00,
2013-08-15 23:25:00,65.5,65.1,29.95,WNW,293,3.0,7.0,99,0.00,,,0.00,meteohub,2013-08-16 06:25:00,
2013-08-15 23:30:00,65.3,64.9,29.95,West,270,6.0,7.0,99,0.00,,,0.00,meteohub,2013-08-16 06:30:00,
2013-08-15 23:35:00,65.3,64.9,29.95,West,270,3.0,7.0,99,0.00,,,0.00,meteohub,2013-08-16 06:35:00,
2013-08-15 23:40:00,65.1,64.8,29.95,West,270,4.0,7.0,99,0.00,,,0.00,meteohub,2013-08-16 06:40:00,
2013-08-15 23:45:00,65.1,64.8,29.96,WNW,293,3.0,7.0,99,0.00,,,0.00,meteohub,2013-08-16 06:45:00,
2013-08-15 23:50:00,65.1,64.8,29.96,WNW,293,4.0,7.0,99,0.00,,,0.00,meteohub,2013-08-16 06:50:00,
2013-08-15 23:55:00,64.9,64.6,29.96,West,270,4.0,4.0,99,0.00,,,0.00,meteohub,2013-08-16 06:55:00,